Time;durP1;ratioP1;P1;durP2;ratioP2;P2;SDS_P1;SDS_P2;PMS_P1;PMS_P2;Temp;Humidity;BMP_temperature;BMP_pressure;BME280_temperature;BME280_humidity;BME280_pressure;Samples;Min_cycle;Max_cycle;Signal;HPM_P1;HPM_P2
2021/05/05 00:00:34;;;;;;;8.43;1.90;;;6.80;99.90;;;;;;5132668;28;20063;-85
2021/05/05 00:03:01;;;;;;;7.75;1.73;;;6.90;99.90;;;;;;5132750;28;20115;-86
2021/05/05 00:05:27;;;;;;;11.80;2.03;;;6.60;99.90;;;;;;5132636;28;20032;-86
2021/05/05 00:07:54;;;;;;;9.23;1.95;;;6.50;99.90;;;;;;5132950;28;20066;-87
2021/05/05 00:10:21;;;;;;;8.18;1.58;;;6.50;99.90;;;;;;5115931;28;20040;-86
2021/05/05 00:12:49;;;;;;;11.68;1.70;;;6.50;99.90;;;;;;5132279;28;20032;-86
2021/05/05 00:15:21;;;;;;;12.30;1.83;;;6.40;99.90;;;;;;5132739;28;20063;-86
2021/05/05 00:17:48;;;;;;;10.98;2.05;;;6.60;99.90;;;;;;5148818;28;20040;-86
2021/05/05 00:20:17;;;;;;;9.45;1.60;;;6.40;99.90;;;;;;5132618;28;20112;-86
2021/05/05 00:22:44;;;;;;;9.77;1.42;;;6.60;99.90;;;;;;5149050;28;20498;-87
2021/05/05 00:25:11;;;;;;;3.33;0.93;;;6.50;99.90;;;;;;5115806;28;20031;-87
2021/05/05 00:27:38;;;;;;;10.75;1.48;;;6.40;99.90;;;;;;5132050;28;20403;-87
2021/05/05 00:30:08;;;;;;;6.20;1.60;;;6.40;99.90;;;;;;5115725;28;20046;-87
2021/05/05 00:32:35;;;;;;;7.13;1.30;;;6.40;99.90;;;;;;5148937;28;20463;-88
2021/05/05 00:35:03;;;;;;;8.02;1.95;;;6.30;99.90;;;;;;5132235;28;20116;-86
2021/05/05 00:37:30;;;;;;;5.18;1.50;;;6.40;99.90;;;;;;5131874;28;20036;-84
2021/05/05 00:39:56;;;;;;;10.15;1.67;;;6.40;99.90;;;;;;5149349;28;20558;-87
2021/05/05 00:42:24;;;;;;;10.23;1.35;;;6.40;99.90;;;;;;5112074;28;20040;-87
2021/05/05 00:44:59;;;;;;;9.40;1.70;;;6.40;99.90;;;;;;5111385;28;20127;-87
2021/05/05 00:47:26;;;;;;;7.18;2.03;;;6.40;99.90;;;;;;5148942;28;20038;-87
2021/05/05 00:49:54;;;;;;;12.43;1.80;;;6.50;99.90;;;;;;5132203;28;20032;-87
2021/05/05 00:52:21;;;;;;;7.40;1.40;;;6.40;99.90;;;;;;5133099;28;20039;-86
2021/05/05 00:54:48;;;;;;;7.13;1.67;;;6.40;99.90;;;;;;5111142;28;20084;-87
2021/05/05 00:57:15;;;;;;;7.88;1.65;;;6.40;99.90;;;;;;5112033;28;20044;-88
2021/05/05 00:59:42;;;;;;;8.75;1.48;;;6.90;99.90;;;;;;5111633;28;20032;-87
2021/05/05 01:02:09;;;;;;;9.27;1.50;;;6.40;99.90;;;;;;5094731;28;20036;-87
2021/05/05 01:04:36;;;;;;;10.27;1.70;;;6.40;99.90;;;;;;5111301;28;20036;-87
2021/05/05 01:07:03;;;;;;;10.00;2.08;;;6.40;99.90;;;;;;5095387;28;20047;-87
2021/05/05 01:09:30;;;;;;;13.63;2.05;;;6.40;99.90;;;;;;5131334;28;20032;-87
2021/05/05 01:11:57;;;;;;;9.93;1.80;;;6.80;99.90;;;;;;5149364;28;20043;-87
2021/05/05 01:14:24;;;;;;;11.73;1.90;;;6.40;99.90;;;;;;5148665;28;20486;-87
2021/05/05 01:16:52;;;;;;;14.38;2.13;;;6.50;99.90;;;;;;5148354;28;20039;-87
2021/05/05 01:19:19;;;;;;;13.20;1.88;;;6.40;99.90;;;;;;5148576;28;20391;-87
2021/05/05 01:21:46;;;;;;;8.88;1.67;;;6.80;99.90;;;;;;5148670;28;20038;-86
2021/05/05 01:24:13;;;;;;;8.38;1.67;;;6.60;99.90;;;;;;5131497;28;20036;-87
2021/05/05 01:26:40;;;;;;;10.10;1.92;;;6.50;99.90;;;;;;5131400;28;20069;-88
2021/05/05 01:29:09;;;;;;;8.48;1.52;;;6.40;99.90;;;;;;5131731;28;20042;-87
2021/05/05 01:31:36;;;;;;;10.90;1.70;;;6.40;99.90;;;;;;5148281;28;20528;-86
2021/05/05 01:34:04;;;;;;;8.82;1.80;;;6.40;99.90;;;;;;5131634;28;20032;-87
2021/05/05 01:36:34;;;;;;;11.77;2.22;;;6.40;99.90;;;;;;5148217;28;20476;-87
2021/05/05 01:39:01;;;;;;;8.70;1.65;;;6.50;99.90;;;;;;5131183;28;20051;-87
2021/05/05 01:41:28;;;;;;;9.15;1.40;;;6.40;99.90;;;;;;5153410;28;20476;-88
2021/05/05 01:43:55;;;;;;;12.07;2.30;;;6.50;99.90;;;;;;5155069;28;20043;-87
2021/05/05 01:46:23;;;;;;;12.43;2.03;;;6.40;99.90;;;;;;5121215;28;20035;-87
2021/05/05 01:48:50;;;;;;;11.43;1.85;;;6.50;99.90;;;;;;5154878;28;20032;-86
2021/05/05 01:51:17;;;;;;;10.18;1.63;;;6.30;99.90;;;;;;5138322;28;20042;-88
2021/05/05 01:53:44;;;;;;;13.60;2.45;;;6.30;99.90;;;;;;5138014;28;20061;-87
2021/05/05 01:56:10;;;;;;;9.52;1.55;;;6.30;99.90;;;;;;5138092;28;20039;-88
2021/05/05 01:58:37;;;;;;;10.38;1.70;;;6.30;99.90;;;;;;5138260;28;20433;-89
2021/05/05 02:01:04;;;;;;;12.73;1.98;;;6.40;99.90;;;;;;5137968;28;20051;-87
2021/05/05 02:03:31;;;;;;;15.50;2.33;;;6.30;99.90;;;;;;5155095;28;20201;-87
2021/05/05 02:05:58;;;;;;;12.52;2.20;;;6.40;99.90;;;;;;5137754;28;20039;-87
2021/05/05 02:08:25;;;;;;;12.20;2.65;;;6.30;99.90;;;;;;5121159;28;20040;-86
2021/05/05 02:10:52;;;;;;;14.10;1.90;;;6.30;99.90;;;;;;5137619;28;20130;-87
2021/05/05 02:13:20;;;;;;;12.90;1.95;;;6.30;99.90;;;;;;5121267;28;20508;-87
2021/05/05 02:15:46;;;;;;;10.45;2.28;;;6.40;99.90;;;;;;5154690;28;20036;-85
2021/05/05 02:18:13;;;;;;;7.07;1.63;;;6.30;99.90;;;;;;5137641;28;20495;-87
2021/05/05 02:20:40;;;;;;;9.60;2.00;;;6.60;99.90;;;;;;5138023;28;20036;-86
2021/05/05 02:23:07;;;;;;;8.38;1.60;;;6.30;99.90;;;;;;5120322;28;20039;-86
2021/05/05 02:25:34;;;;;;;6.15;1.75;;;6.30;99.90;;;;;;5137678;28;20500;-86
2021/05/05 02:28:00;;;;;;;12.80;2.28;;;6.30;99.90;;;;;;5154276;28;20425;-87
2021/05/05 02:30:27;;;;;;;7.95;1.80;;;6.20;99.90;;;;;;5138343;28;20035;-86
2021/05/05 02:32:54;;;;;;;9.70;1.75;;;6.20;99.90;;;;;;5137848;28;20031;-87
2021/05/05 02:35:21;;;;;;;6.80;1.90;;;6.10;99.90;;;;;;5120729;28;20036;-86
2021/05/05 02:37:48;;;;;;;9.65;1.75;;;6.20;99.90;;;;;;5120512;28;20071;-88
2021/05/05 02:40:16;;;;;;;10.50;1.80;;;6.20;99.90;;;;;;5137936;28;20042;-87
2021/05/05 02:42:43;;;;;;;13.70;2.20;;;6.20;99.90;;;;;;5137857;28;20490;-86
2021/05/05 02:45:10;;;;;;;9.88;1.58;;;6.30;99.90;;;;;;5120497;28;20053;-87
2021/05/05 02:47:38;;;;;;;12.35;1.85;;;6.20;99.90;;;;;;5120740;28;20499;-87
2021/05/05 02:50:06;;;;;;;14.32;2.08;;;6.20;99.90;;;;;;5137199;28;20036;-87
2021/05/05 02:52:33;;;;;;;15.23;2.40;;;6.10;99.90;;;;;;5134583;28;20044;-87
2021/05/05 02:55:02;;;;;;;9.07;1.70;;;6.50;99.90;;;;;;5133876;28;20516;-87
2021/05/05 02:57:29;;;;;;;7.97;1.60;;;6.10;99.90;;;;;;5134424;28;20046;-87
2021/05/05 02:59:56;;;;;;;13.95;2.20;;;6.10;99.90;;;;;;5117601;28;20027;-88
2021/05/05 03:02:22;;;;;;;13.98;2.03;;;6.20;99.90;;;;;;5117701;28;20036;-87
2021/05/05 03:04:51;;;;;;;10.48;1.92;;;6.30;99.90;;;;;;5116996;28;20085;-85
2021/05/05 03:07:18;;;;;;;10.05;1.80;;;6.40;99.90;;;;;;5151190;28;20043;-87
2021/05/05 03:09:45;;;;;;;10.05;2.00;;;6.20;99.90;;;;;;5150811;28;20032;-86
2021/05/05 03:12:12;;;;;;;10.38;1.98;;;6.50;99.90;;;;;;5133539;28;20110;-86
2021/05/05 03:14:38;;;;;;;8.27;1.83;;;6.20;99.90;;;;;;5150931;28;20118;-87
2021/05/05 03:17:05;;;;;;;7.82;1.65;;;6.10;99.90;;;;;;5116591;28;20118;-87
2021/05/05 03:19:32;;;;;;;8.40;1.95;;;6.10;99.90;;;;;;5133866;28;20043;-87
2021/05/05 03:22:00;;;;;;;7.93;1.77;;;6.30;99.90;;;;;;5133429;28;20036;-87
2021/05/05 03:24:27;;;;;;;8.70;1.92;;;6.40;99.90;;;;;;5133917;28;20043;-87
2021/05/05 03:26:54;;;;;;;11.02;2.17;;;6.20;99.90;;;;;;5116644;28;20084;-86
2021/05/05 03:29:20;;;;;;;10.45;1.85;;;6.00;99.90;;;;;;5133518;28;20032;-86
2021/05/05 03:31:47;;;;;;;8.13;1.95;;;6.10;99.90;;;;;;5116759;28;20067;-86
2021/05/05 03:34:14;;;;;;;10.18;1.80;;;6.00;99.90;;;;;;5151117;28;20035;-87
2021/05/05 03:36:42;;;;;;;8.27;1.75;;;6.00;99.90;;;;;;5150211;28;20471;-86
2021/05/05 03:39:09;;;;;;;8.63;1.85;;;6.00;99.90;;;;;;5116023;28;20092;-86
2021/05/05 03:41:36;;;;;;;14.25;2.25;;;6.10;99.90;;;;;;5150506;28;20035;-86
2021/05/05 03:44:05;;;;;;;8.45;2.03;;;6.00;99.90;;;;;;5116523;28;20035;-86
2021/05/05 03:46:32;;;;;;;13.02;2.55;;;6.00;99.90;;;;;;5133087;28;20114;-86
2021/05/05 03:49:02;;;;;;;13.95;2.58;;;6.00;99.90;;;;;;5133363;28;20043;-87
2021/05/05 03:51:28;;;;;;;13.35;2.47;;;6.00;99.90;;;;;;5099598;28;20118;-86
2021/05/05 03:53:55;;;;;;;9.23;1.83;;;5.90;99.90;;;;;;5099264;28;20070;-86
2021/05/05 03:56:22;;;;;;;6.32;1.88;;;5.90;99.90;;;;;;5116658;28;20039;-87
2021/05/05 03:58:49;;;;;;;7.32;1.70;;;5.80;99.90;;;;;;5133173;28;20046;-87
2021/05/05 04:01:16;;;;;;;6.90;1.42;;;5.90;99.90;;;;;;5133046;28;20039;-88
2021/05/05 04:03:42;;;;;;;6.50;1.30;;;5.90;99.90;;;;;;5150356;28;20032;-87
2021/05/05 04:06:09;;;;;;;5.13;1.08;;;5.70;99.90;;;;;;5132898;28;20047;-86
2021/05/05 04:08:36;;;;;;;2.63;0.90;;;5.60;99.90;;;;;;5150067;28;20042;-88
2021/05/05 04:11:04;;;;;;;5.70;1.30;;;5.60;99.90;;;;;;5149713;28;20042;-87
2021/05/05 04:13:32;;;;;;;7.70;1.33;;;5.60;99.90;;;;;;5150952;28;20441;-88
2021/05/05 04:16:02;;;;;;;6.47;1.83;;;6.00;99.90;;;;;;5150107;28;20122;-87
2021/05/05 04:18:29;;;;;;;15.00;2.10;;;5.70;99.90;;;;;;5133544;28;20031;-87
2021/05/05 04:21:00;;;;;;;10.18;1.95;;;5.60;99.90;;;;;;5149447;28;20495;-83
2021/05/05 04:23:27;;;;;;;6.40;2.15;;;6.10;99.90;;;;;;5150003;28;20032;-87
2021/05/05 04:25:54;;;;;;;10.13;2.45;;;5.70;99.90;;;;;;5115973;28;20028;-89
2021/05/05 04:28:21;;;;;;;12.38;2.03;;;5.60;99.90;;;;;;5132709;28;20134;-87
2021/05/05 04:30:48;;;;;;;10.07;2.40;;;5.70;99.90;;;;;;5115823;28;20035;-87
2021/05/05 04:33:15;;;;;;;7.45;1.70;;;5.70;99.90;;;;;;5098496;28;20067;-88
2021/05/05 04:35:42;;;;;;;8.35;1.77;;;5.80;99.90;;;;;;5149152;28;20043;-87
2021/05/05 04:38:09;;;;;;;7.07;1.40;;;5.70;99.90;;;;;;5114983;28;20031;-84
2021/05/05 04:40:36;;;;;;;7.90;1.45;;;5.80;99.90;;;;;;5131402;28;20110;-85
2021/05/05 04:43:03;;;;;;;6.63;1.35;;;5.70;99.90;;;;;;5131547;28;20479;-87
2021/05/05 04:45:30;;;;;;;5.18;1.30;;;5.60;99.90;;;;;;5132355;28;20042;-87
2021/05/05 04:47:57;;;;;;;6.40;1.30;;;5.50;99.90;;;;;;5115725;28;20456;-86
2021/05/05 04:50:24;;;;;;;7.18;1.48;;;5.50;99.90;;;;;;5131864;28;20047;-86
2021/05/05 04:52:51;;;;;;;5.22;1.40;;;5.20;99.90;;;;;;5132121;28;20395;-87
2021/05/05 04:55:18;;;;;;;3.30;0.93;;;5.60;99.90;;;;;;5131397;28;20047;-86
2021/05/05 04:57:45;;;;;;;6.88;1.10;;;5.30;99.90;;;;;;5148964;28;20038;-87
2021/05/05 05:00:13;;;;;;;8.82;1.40;;;5.30;99.90;;;;;;5132367;28;20122;-87
2021/05/05 05:02:40;;;;;;;11.18;1.98;;;5.20;99.90;;;;;;5133200;28;20126;-87
2021/05/05 05:05:07;;;;;;;11.32;1.90;;;5.20;99.90;;;;;;5132167;28;20478;-86
2021/05/05 05:07:35;;;;;;;13.00;2.20;;;5.20;99.90;;;;;;5131796;28;20043;-86
2021/05/05 05:10:06;;;;;;;12.55;2.35;;;5.30;99.90;;;;;;5148819;28;20471;-86
2021/05/05 05:12:33;;;;;;;14.63;2.67;;;5.40;99.90;;;;;;5132358;28;20035;-86
2021/05/05 05:15:01;;;;;;;13.25;2.67;;;5.50;99.90;;;;;;5114887;28;20039;-86
2021/05/05 05:17:27;;;;;;;11.98;2.25;;;5.50;99.90;;;;;;5148698;28;20072;-86
2021/05/05 05:19:54;;;;;;;16.95;2.75;;;5.70;99.90;;;;;;5131458;28;20118;-86
2021/05/05 05:22:21;;;;;;;11.65;2.38;;;5.60;99.90;;;;;;5131563;28;20893;-86
2021/05/05 05:24:48;;;;;;;17.17;3.03;;;5.80;99.90;;;;;;5131307;28;20126;-85
2021/05/05 05:27:15;;;;;;;13.68;2.53;;;5.70;99.90;;;;;;5131082;28;20063;-87
2021/05/05 05:29:42;;;;;;;15.00;2.30;;;6.10;99.90;;;;;;5148209;28;20035;-86
2021/05/05 05:32:09;;;;;;;18.05;2.50;;;5.80;99.90;;;;;;5131073;28;20031;-86
2021/05/05 05:34:36;;;;;;;11.82;2.40;;;5.80;99.90;;;;;;5131511;28;20039;-86
2021/05/05 05:37:03;;;;;;;12.18;1.88;;;5.90;99.90;;;;;;5131528;28;20036;-86
2021/05/05 05:39:30;;;;;;;8.73;1.98;;;6.30;99.90;;;;;;5114679;28;20097;-86
2021/05/05 05:41:57;;;;;;;8.52;1.92;;;5.90;99.90;;;;;;5114717;28;20081;-85
2021/05/05 05:44:24;;;;;;;5.85;1.50;;;5.90;99.90;;;;;;5130884;28;20028;-87
2021/05/05 05:46:51;;;;;;;7.63;1.77;;;5.90;99.90;;;;;;5131224;28;20043;-86
2021/05/05 05:49:18;;;;;;;12.40;1.63;;;5.90;99.90;;;;;;5130891;28;20039;-87
2021/05/05 05:51:45;;;;;;;6.70;1.80;;;5.90;99.90;;;;;;5148042;28;20074;-87
2021/05/05 05:54:12;;;;;;;15.48;2.65;;;6.00;99.90;;;;;;5147815;28;20487;-87
2021/05/05 05:56:39;;;;;;;13.95;2.67;;;6.00;99.90;;;;;;5114404;28;20048;-86
2021/05/05 05:59:06;;;;;;;16.02;2.50;;;6.00;99.90;;;;;;5109490;28;20040;-86
2021/05/05 06:01:32;;;;;;;16.55;3.28;;;6.00;99.90;;;;;;5128676;28;20081;-86
2021/05/05 06:03:59;;;;;;;12.20;2.45;;;6.10;99.90;;;;;;5110437;28;20396;-86
2021/05/05 06:06:26;;;;;;;16.02;2.75;;;6.10;99.90;;;;;;5093945;28;20052;-86
2021/05/05 06:08:52;;;;;;;15.70;3.05;;;6.20;99.90;;;;;;5110920;28;20039;-86
2021/05/05 06:11:20;;;;;;;13.77;2.38;;;6.10;99.90;;;;;;5100091;28;20039;-88
2021/05/05 06:13:47;;;;;;;15.85;2.28;;;6.20;99.90;;;;;;5131330;28;20032;-86
2021/05/05 06:16:13;;;;;;;16.17;2.10;;;6.30;99.90;;;;;;5125525;28;20043;-87
2021/05/05 06:18:40;;;;;;;16.50;2.20;;;6.30;99.90;;;;;;5114621;28;20035;-88
2021/05/05 06:21:07;;;;;;;15.13;2.58;;;6.40;99.90;;;;;;5149173;28;20433;-87
2021/05/05 06:23:34;;;;;;;13.93;2.65;;;6.40;99.90;;;;;;5130659;28;20092;-87
2021/05/05 06:26:01;;;;;;;10.27;2.03;;;6.50;99.90;;;;;;5114488;28;20038;-87
2021/05/05 06:28:27;;;;;;;13.30;2.50;;;6.70;99.90;;;;;;5134794;28;20047;-87
2021/05/05 06:30:57;;;;;;;14.55;2.00;;;6.60;99.90;;;;;;5134857;28;20076;-87
2021/05/05 06:33:44;;;;;;;12.82;2.20;;;6.60;99.90;;;;;;5124530;28;20047;-87
2021/05/05 06:36:10;;;;;;;12.63;2.25;;;6.60;99.90;;;;;;5134851;28;20031;-83
2021/05/05 06:38:37;;;;;;;14.25;2.60;;;6.90;99.90;;;;;;5134735;28;20399;-86
2021/05/05 06:41:04;;;;;;;15.75;2.45;;;6.80;99.90;;;;;;5134771;28;20050;-87
2021/05/05 06:43:31;;;;;;;9.48;2.17;;;6.80;99.90;;;;;;5134672;28;20464;-88
2021/05/05 06:45:58;;;;;;;17.48;2.30;;;6.90;99.90;;;;;;5134590;28;20035;-86
2021/05/05 06:48:25;;;;;;;9.95;1.98;;;6.80;99.90;;;;;;5117185;28;20039;-88
2021/05/05 06:50:52;;;;;;;13.30;2.58;;;6.90;99.90;;;;;;5151973;28;20084;-87
2021/05/05 06:53:19;;;;;;;13.30;2.45;;;6.90;99.90;;;;;;5142324;28;20036;-86
2021/05/05 06:55:46;;;;;;;10.43;2.05;;;6.90;99.90;;;;;;5128008;28;20504;-88
2021/05/05 06:58:13;;;;;;;13.75;2.40;;;6.90;99.90;;;;;;5113822;28;20038;-87
2021/05/05 07:00:40;;;;;;;14.07;2.55;;;7.00;99.90;;;;;;5097721;28;20042;-88
2021/05/05 07:03:07;;;;;;;9.45;2.00;;;7.20;99.90;;;;;;5120174;28;20031;-88
2021/05/05 07:05:34;;;;;;;14.65;2.25;;;7.00;99.90;;;;;;5109172;28;20060;-88
2021/05/05 07:08:01;;;;;;;14.18;2.30;;;7.00;99.90;;;;;;5145480;28;20032;-88
2021/05/05 07:10:28;;;;;;;13.18;3.10;;;7.10;99.90;;;;;;5122618;28;20036;-87
2021/05/05 07:12:54;;;;;;;10.25;1.73;;;7.20;99.90;;;;;;5151466;28;20468;-88
2021/05/05 07:15:21;;;;;;;12.57;2.47;;;7.40;99.90;;;;;;5130409;28;20032;-88
2021/05/05 07:17:48;;;;;;;12.55;2.08;;;7.20;99.90;;;;;;5130624;28;20040;-88
2021/05/05 07:20:15;;;;;;;12.18;2.25;;;7.60;99.90;;;;;;5114264;28;20046;-87
2021/05/05 07:22:42;;;;;;;11.18;2.03;;;7.30;99.90;;;;;;5130348;28;20042;-87
2021/05/05 07:25:09;;;;;;;12.63;2.00;;;7.30;99.90;;;;;;5130352;28;20065;-87
2021/05/05 07:27:37;;;;;;;8.57;1.95;;;7.30;99.90;;;;;;5129689;28;20044;-87
2021/05/05 07:30:07;;;;;;;8.63;2.33;;;7.40;99.90;;;;;;5130145;28;20046;-87
2021/05/05 07:32:33;;;;;;;12.30;1.90;;;7.50;99.90;;;;;;5130034;28;20040;-87
2021/05/05 07:35:03;;;;;;;7.13;1.60;;;7.50;99.90;;;;;;5130750;28;20096;-87
2021/05/05 07:48:32;;;;;;;;;;;7.50;99.90;;;;;;5130773;28;20040;-86
2021/05/05 07:50:59;;;;;;;10.02;2.00;;;7.60;99.90;;;;;;5129471;28;19923;-86
2021/05/05 07:53:26;;;;;;;8.40;2.00;;;7.70;99.90;;;;;;5129746;28;20048;-87
2021/05/05 07:55:55;;;;;;;6.22;1.70;;;7.70;99.90;;;;;;5129769;28;20121;-86
2021/05/05 07:58:22;;;;;;;18.55;2.92;;;7.70;99.90;;;;;;5112242;28;20131;-86
2021/05/05 08:00:49;;;;;;;19.27;3.03;;;7.60;99.90;;;;;;5146471;28;20043;-86
2021/05/05 08:03:16;;;;;;;17.38;2.70;;;7.50;99.90;;;;;;5129561;28;20473;-86
2021/05/05 08:05:42;;;;;;;11.63;2.85;;;7.30;99.90;;;;;;5128993;28;20032;-87
2021/05/05 08:08:09;;;;;;;11.05;2.92;;;7.20;99.90;;;;;;5129305;28;20484;-87
2021/05/05 08:10:37;;;;;;;16.95;2.67;;;7.10;99.90;;;;;;5129518;28;20118;-87
2021/05/05 08:13:04;;;;;;;10.32;2.15;;;7.10;99.90;;;;;;5129656;28;20032;-87
2021/05/05 08:15:35;;;;;;;10.13;2.03;;;7.00;99.90;;;;;;5145896;28;20043;-87
2021/05/05 08:18:04;;;;;;;8.55;1.70;;;7.10;99.90;;;;;;5129291;28;20042;-87
2021/05/05 08:20:34;;;;;;;11.38;2.13;;;6.90;99.90;;;;;;5129562;28;20028;-87
2021/05/05 08:23:06;;;;;;;13.65;2.50;;;7.30;99.90;;;;;;5129300;28;20040;-87
2021/05/05 08:25:33;;;;;;;12.40;1.67;;;7.10;99.90;;;;;;5145483;28;20514;-86
2021/05/05 08:28:01;;;;;;;12.48;2.25;;;7.10;99.90;;;;;;5129208;28;20127;-87
2021/05/05 08:30:28;;;;;;;14.88;2.75;;;7.20;99.90;;;;;;5128435;28;20036;-86
2021/05/05 08:32:55;;;;;;;8.90;0.90;;;7.20;99.90;;;;;;5128758;28;20047;-88
2021/05/05 08:35:23;;;;;;;7.13;1.40;;;7.00;99.90;;;;;;5128629;28;20032;-85
2021/05/05 08:37:51;;;;;;;4.90;1.17;;;6.70;99.90;;;;;;5128589;28;20039;-87
2021/05/05 08:40:20;;;;;;;7.30;1.42;;;6.50;99.90;;;;;;5128896;28;20491;-87
2021/05/05 08:42:47;;;;;;;4.85;1.10;;;6.40;99.90;;;;;;5145216;28;20059;-86
2021/05/05 08:45:15;;;;;;;8.88;1.55;;;6.50;99.90;;;;;;5145575;28;20427;-88
2021/05/05 08:47:45;;;;;;;6.78;1.50;;;6.50;99.90;;;;;;5129403;28;20158;-86
2021/05/05 08:50:14;;;;;;;6.53;1.48;;;6.80;99.90;;;;;;5128014;28;20091;-85
2021/05/05 08:52:41;;;;;;;6.13;1.48;;;6.90;99.90;;;;;;5128541;28;20123;-86
2021/05/05 08:55:12;;;;;;;5.82;1.25;;;7.00;99.90;;;;;;5128343;28;20044;-86
2021/05/05 08:57:39;;;;;;;8.07;1.30;;;7.10;99.90;;;;;;5144781;28;20085;-86
2021/05/05 09:00:13;;;;;;;4.72;1.40;;;7.10;99.90;;;;;;5128579;28;20464;-87
2021/05/05 09:02:40;;;;;;;5.72;1.50;;;7.20;99.90;;;;;;5145492;28;20078;-85
2021/05/05 09:05:11;;;;;;;5.50;1.60;;;7.20;99.90;;;;;;5129149;28;20035;-87
2021/05/05 09:07:40;;;;;;;4.35;1.20;;;7.30;99.90;;;;;;5128200;28;20143;-86
2021/05/05 09:10:11;;;;;;;9.18;1.83;;;7.30;99.90;;;;;;5144800;28;20044;-85
2021/05/05 09:12:41;;;;;;;6.88;1.77;;;7.40;99.90;;;;;;5144684;28;20028;-85
2021/05/05 09:15:19;;;;;;;5.30;1.42;;;7.60;99.90;;;;;;5129183;28;20119;-86
2021/05/05 09:17:49;;;;;;;5.57;1.50;;;7.60;99.90;;;;;;5127541;28;20046;-86
2021/05/05 09:20:20;;;;;;;5.05;1.27;;;7.60;99.90;;;;;;5144673;28;20118;-86
2021/05/05 09:22:54;;;;;;;9.00;1.52;;;7.40;99.90;;;;;;5127595;28;20082;-85
2021/05/05 09:25:31;;;;;;;9.88;2.03;;;7.30;99.90;;;;;;5129434;28;20119;-86
2021/05/05 09:28:18;;;;;;;5.82;1.63;;;7.30;99.90;;;;;;5144774;28;20519;-87
2021/05/05 09:30:53;;;;;;;11.60;2.00;;;7.30;99.90;;;;;;5144442;28;20036;-86
2021/05/05 09:33:23;;;;;;;5.53;1.52;;;7.30;99.90;;;;;;5128676;28;20032;-86
2021/05/05 09:35:58;;;;;;;8.73;1.50;;;7.30;99.90;;;;;;5144275;28;20068;-86
2021/05/05 09:39:01;;;;;;;6.70;1.60;;;7.30;99.90;;;;;;5144397;28;20449;-86
2021/05/05 09:41:32;;;;;;;5.40;1.23;;;7.30;99.90;;;;;;5106364;28;20054;-86
2021/05/05 09:44:04;;;;;;;7.30;1.10;;;7.20;99.90;;;;;;5144647;28;20032;-86
2021/05/05 09:46:46;;;;;;;5.97;1.30;;;7.20;99.90;;;;;;5144604;28;20028;-83
2021/05/05 09:49:19;;;;;;;7.75;1.85;;;7.30;99.90;;;;;;5144729;28;20036;-86
2021/05/05 09:51:51;;;;;;;7.25;1.60;;;7.30;99.90;;;;;;5144061;28;20032;-86
2021/05/05 09:54:27;;;;;;;6.25;1.48;;;7.30;99.90;;;;;;5144298;28;20434;-86
2021/05/05 09:57:13;;;;;;;7.22;1.50;;;7.30;99.90;;;;;;5143613;28;20063;-86
2021/05/05 09:59:54;;;;;;;7.45;1.67;;;7.40;99.90;;;;;;5128477;28;20044;-85
2021/05/05 10:02:22;;;;;;;7.85;1.52;;;7.60;99.90;;;;;;5130920;28;20116;-87
2021/05/05 10:05:04;;;;;;;4.68;1.10;;;7.80;99.90;;;;;;5131600;28;20067;-85
2021/05/05 10:07:50;;;;;;;9.07;1.45;;;8.00;99.90;;;;;;5148483;28;20048;-86
2021/05/05 10:10:18;;;;;;;9.65;1.67;;;8.20;99.90;;;;;;5149714;28;20430;-86
2021/05/05 10:12:49;;;;;;;9.77;1.70;;;8.40;99.90;;;;;;5147817;28;20395;-86
2021/05/05 10:15:17;;;;;;;4.45;1.25;;;8.40;99.90;;;;;;5148611;28;20456;-86
2021/05/05 10:17:50;;;;;;;7.72;1.88;;;8.30;99.90;;;;;;5147727;28;20036;-86
2021/05/05 10:20:22;;;;;;;7.63;1.58;;;8.10;99.90;;;;;;5148553;28;20040;-86
2021/05/05 10:22:54;;;;;;;7.50;1.77;;;8.00;99.90;;;;;;5147880;28;20436;-86
2021/05/05 10:25:22;;;;;;;9.75;1.48;;;8.10;99.90;;;;;;5148355;28;20040;-86
2021/05/05 10:27:50;;;;;;;5.85;1.35;;;8.00;99.90;;;;;;5132248;28;20377;-87
2021/05/05 10:30:20;;;;;;;8.77;1.90;;;7.90;99.90;;;;;;5148256;28;20159;-87
2021/05/05 10:32:47;;;;;;;10.45;2.20;;;7.70;99.90;;;;;;5131767;28;20042;-87
2021/05/05 10:35:16;;;;;;;10.13;2.45;;;7.70;99.90;;;;;;5131368;28;20119;-89
2021/05/05 10:37:46;;;;;;;5.97;1.80;;;7.60;99.90;;;;;;5141646;28;20046;-88
2021/05/05 10:40:19;;;;;;;6.40;1.38;;;7.60;99.90;;;;;;5131168;28;20111;-88
2021/05/05 10:43:01;;;;;;;9.18;1.63;;;7.70;99.90;;;;;;5139463;28;20036;-85
2021/05/05 10:45:38;;;;;;;9.32;1.70;;;7.80;99.90;;;;;;5151473;28;20039;-88
2021/05/05 10:48:05;;;;;;;8.63;1.77;;;8.00;99.90;;;;;;5134756;28;20100;-87
2021/05/05 10:50:47;;;;;;;6.95;1.83;;;8.10;99.90;;;;;;5150467;28;20472;-88
2021/05/05 10:53:14;;;;;;;7.90;1.73;;;8.30;99.90;;;;;;5149091;28;20031;-88
2021/05/05 10:56:00;;;;;;;8.98;1.60;;;8.40;99.90;;;;;;5132250;28;20051;-86
2021/05/05 10:58:31;;;;;;;;;;;8.40;99.90;;;;;;5131309;28;20044;-88
2021/05/05 11:01:06;;;;;;;9.15;1.50;;;8.40;99.90;;;;;;5114211;28;19920;-88
2021/05/05 11:03:54;;;;;;;3.83;1.20;;;8.20;99.90;;;;;;5131361;28;20043;-89
2021/05/05 11:06:30;;;;;;;4.45;0.95;;;7.90;99.90;;;;;;5131092;28;20032;-89
2021/05/05 11:09:17;;;;;;;3.42;0.98;;;7.60;99.90;;;;;;5142610;28;20040;-90
2021/05/05 11:11:46;;;;;;;3.95;1.23;;;7.40;99.90;;;;;;5135965;28;20032;-88
2021/05/05 11:14:27;;;;;;;7.18;1.63;;;7.30;99.90;;;;;;5147187;28;20036;-88
2021/05/05 11:17:05;;;;;;;8.50;1.50;;;7.20;99.90;;;;;;5143462;28;20039;-86
2021/05/05 11:19:35;;;;;;;8.80;1.75;;;7.20;99.90;;;;;;5151489;28;20067;-88
2021/05/05 11:22:18;;;;;;;7.00;1.30;;;7.20;99.90;;;;;;5150891;28;20036;-87
2021/05/05 11:24:46;;;;;;;7.10;1.50;;;7.20;99.90;;;;;;5151934;28;20491;-88
2021/05/05 11:27:15;;;;;;;6.47;1.40;;;7.00;99.90;;;;;;5131165;28;20579;-89
2021/05/05 11:29:47;;;;;;;9.80;2.03;;;7.00;99.90;;;;;;5130804;28;20039;-89
2021/05/05 11:32:33;;;;;;;9.48;1.92;;;7.20;99.90;;;;;;5151012;28;20042;-89
2021/05/05 11:35:00;;;;;;;6.68;1.80;;;7.40;99.90;;;;;;5133421;28;20082;-90
2021/05/05 11:37:28;;;;;;;7.53;1.20;;;7.40;99.90;;;;;;5117376;28;20039;-88
2021/05/05 11:40:04;;;;;;;9.13;2.00;;;7.40;99.90;;;;;;5116999;28;20491;-87
2021/05/05 11:42:38;;;;;;;6.47;1.70;;;7.50;99.90;;;;;;5152056;28;20399;-89
2021/05/05 11:45:11;;;;;;;8.25;2.00;;;7.50;99.90;;;;;;5134069;28;20044;-88
2021/05/05 11:47:45;;;;;;;7.95;2.10;;;7.70;99.90;;;;;;5134301;28;20069;-87
2021/05/05 11:50:14;;;;;;;12.45;2.50;;;7.90;99.90;;;;;;5133840;28;20093;-88
2021/05/05 11:52:52;;;;;;;8.63;2.00;;;8.20;99.90;;;;;;5134052;28;20054;-88
2021/05/05 11:55:27;;;;;;;10.27;3.03;;;8.40;99.90;;;;;;5150239;28;20052;-89
2021/05/05 11:57:55;;;;;;;12.45;2.35;;;8.40;99.90;;;;;;5147583;28;20039;-89
2021/05/05 12:00:32;;;;;;;10.07;2.15;;;8.40;99.90;;;;;;5129960;28;20119;-89
2021/05/05 12:03:04;;;;;;;10.57;2.63;;;8.60;99.90;;;;;;5129595;28;20077;-89
2021/05/05 12:05:33;;;;;;;15.98;3.00;;;8.80;99.90;;;;;;5126839;28;20031;-88
2021/05/05 12:08:07;;;;;;;10.77;2.60;;;8.70;99.90;;;;;;5130314;28;20067;-88
2021/05/05 12:10:43;;;;;;;7.20;1.25;;;8.40;99.90;;;;;;5150208;28;20031;-87
2021/05/05 12:13:17;;;;;;;7.68;1.65;;;8.10;99.90;;;;;;5137403;28;20388;-86
2021/05/05 12:15:54;;;;;;;5.78;1.52;;;7.80;99.90;;;;;;5142872;28;20036;-87
2021/05/05 12:18:36;;;;;;;7.65;1.45;;;7.40;99.90;;;;;;5149752;28;20062;-86
2021/05/05 12:21:18;;;;;;;12.38;1.80;;;7.30;99.90;;;;;;5143515;28;20525;-86
2021/05/05 12:23:48;;;;;;;4.22;1.42;;;7.20;99.90;;;;;;5129157;28;20032;-87
2021/05/05 12:26:21;;;;;;;8.18;1.40;;;7.20;99.90;;;;;;5134962;28;20036;-85
2021/05/05 12:28:49;;;;;;;16.17;2.42;;;7.30;99.90;;;;;;5142733;28;20385;-85
2021/05/05 12:31:22;;;;;;;11.18;2.30;;;7.40;99.90;;;;;;5112327;28;20452;-86
2021/05/05 12:33:50;;;;;;;7.80;1.80;;;7.40;99.90;;;;;;5129154;28;20113;-87
2021/05/05 12:36:23;;;;;;;8.75;1.60;;;7.50;99.90;;;;;;5112086;28;20032;-87
2021/05/05 12:39:03;;;;;;;10.45;1.65;;;7.60;99.90;;;;;;5129844;28;20404;-87
2021/05/05 12:41:54;;;;;;;10.65;1.83;;;7.80;99.90;;;;;;5128824;28;20040;-87
2021/05/05 12:44:31;;;;;;;6.93;1.55;;;7.80;99.90;;;;;;5129209;28;20490;-86
2021/05/05 12:46:59;;;;;;;7.78;1.58;;;7.60;99.90;;;;;;5128596;28;20036;-86
2021/05/05 12:49:36;;;;;;;9.13;1.73;;;7.40;99.90;;;;;;5095308;28;20033;-86
2021/05/05 12:52:29;;;;;;;9.68;2.10;;;7.10;99.90;;;;;;5128657;28;20051;-86
2021/05/05 12:54:58;;;;;;;11.23;1.85;;;7.10;99.90;;;;;;5129411;28;20129;-87
2021/05/05 12:57:26;;;;;;;11.20;2.60;;;7.20;99.90;;;;;;5132744;28;20039;-87
2021/05/05 12:59:54;;;;;;;15.27;2.70;;;7.20;99.90;;;;;;5128509;28;20089;-86
2021/05/05 13:02:24;;;;;;;22.05;3.42;;;7.50;99.90;;;;;;5128788;28;20040;-86
2021/05/05 13:05:03;;;;;;;19.08;2.88;;;7.70;99.90;;;;;;5130070;28;20036;-87
2021/05/05 13:07:32;;;;;;;19.30;2.78;;;8.00;99.90;;;;;;5128716;28;20054;-87
2021/05/05 13:10:12;;;;;;;10.50;1.92;;;8.40;99.90;;;;;;5111235;28;20086;-86
2021/05/05 13:12:53;;;;;;;13.13;2.03;;;8.50;99.90;;;;;;5112020;28;20510;-87
2021/05/05 13:32:45;;;;;;;15.75;2.95;;;9.10;99.90;;;;;;5148480;28;20095;-86